sensor_id;sensor_type;location;lat;lon;timestamp;temperature;humidity
42683;DHT22;28293;50.930;3.464;2022-11-20T00:01:21;5.00;92.70
42683;DHT22;28293;50.930;3.464;2022-11-20T00:03:47;5.00;92.70
42683;DHT22;28293;50.930;3.464;2022-11-20T00:06:15;5.00;92.60
42683;DHT22;28293;50.930;3.464;2022-11-20T00:08:42;5.00;92.60
42683;DHT22;28293;50.930;3.464;2022-11-20T00:11:13;5.10;92.70
42683;DHT22;28293;50.930;3.464;2022-11-20T00:13:39;5.10;92.70
42683;DHT22;28293;50.930;3.464;2022-11-20T00:16:07;5.10;92.60
42683;DHT22;28293;50.930;3.464;2022-11-20T00:18:34;5.10;92.60
42683;DHT22;28293;50.930;3.464;2022-11-20T00:21:01;5.10;92.60
42683;DHT22;28293;50.930;3.464;2022-11-20T00:23:27;5.10;92.60
42683;DHT22;28293;50.930;3.464;2022-11-20T00:25:53;5.10;92.60
42683;DHT22;28293;50.930;3.464;2022-11-20T00:28:19;5.10;92.50
42683;DHT22;28293;50.930;3.464;2022-11-20T00:30:45;5.00;92.30
42683;DHT22;28293;50.930;3.464;2022-11-20T00:33:11;5.00;92.40
42683;DHT22;28293;50.930;3.464;2022-11-20T00:35:36;5.10;92.50
42683;DHT22;28293;50.930;3.464;2022-11-20T00:38:02;5.00;92.40
42683;DHT22;28293;50.930;3.464;2022-11-20T00:40:28;5.00;92.50
42683;DHT22;28293;50.930;3.464;2022-11-20T00:42:54;5.10;92.50
42683;DHT22;28293;50.930;3.464;2022-11-20T00:45:20;5.00;92.30
42683;DHT22;28293;50.930;3.464;2022-11-20T00:47:45;5.00;92.40
42683;DHT22;28293;50.930;3.464;2022-11-20T00:50:11;5.00;92.30
42683;DHT22;28293;50.930;3.464;2022-11-20T00:52:37;5.10;92.40
42683;DHT22;28293;50.930;3.464;2022-11-20T00:55:02;5.10;92.40
42683;DHT22;28293;50.930;3.464;2022-11-20T00:57:28;5.10;92.40
42683;DHT22;28293;50.930;3.464;2022-11-20T00:59:54;5.20;92.30
42683;DHT22;28293;50.930;3.464;2022-11-20T01:02:20;5.10;92.20
42683;DHT22;28293;50.930;3.464;2022-11-20T01:04:45;5.10;92.30
42683;DHT22;28293;50.930;3.464;2022-11-20T01:07:11;5.10;92.10
42683;DHT22;28293;50.930;3.464;2022-11-20T01:09:37;5.20;92.10
42683;DHT22;28293;50.930;3.464;2022-11-20T01:12:03;5.10;91.90
42683;DHT22;28293;50.930;3.464;2022-11-20T01:14:28;5.10;91.90
42683;DHT22;28293;50.930;3.464;2022-11-20T01:16:54;5.10;91.90
42683;DHT22;28293;50.930;3.464;2022-11-20T01:19:21;5.10;92.00
42683;DHT22;28293;50.930;3.464;2022-11-20T01:21:50;5.10;91.90
42683;DHT22;28293;50.930;3.464;2022-11-20T01:24:18;5.10;91.80
42683;DHT22;28293;50.930;3.464;2022-11-20T01:26:46;5.10;91.90
42683;DHT22;28293;50.930;3.464;2022-11-20T01:29:21;5.10;91.90
42683;DHT22;28293;50.930;3.464;2022-11-20T01:31:47;5.10;91.90
42683;DHT22;28293;50.930;3.464;2022-11-20T01:34:16;5.10;91.90
42683;DHT22;28293;50.930;3.464;2022-11-20T01:36:43;5.20;92.00
42683;DHT22;28293;50.930;3.464;2022-11-20T01:39:17;5.20;92.00
42683;DHT22;28293;50.930;3.464;2022-11-20T01:41:46;5.20;91.90
42683;DHT22;28293;50.930;3.464;2022-11-20T01:47:38;5.20;91.90
42683;DHT22;28293;50.930;3.464;2022-11-20T01:50:11;5.20;91.90
42683;DHT22;28293;50.930;3.464;2022-11-20T01:52:45;5.20;91.90
42683;DHT22;28293;50.930;3.464;2022-11-20T01:55:25;5.20;91.70
42683;DHT22;28293;50.930;3.464;2022-11-20T01:57:51;5.20;91.50
42683;DHT22;28293;50.930;3.464;2022-11-20T02:00:19;5.20;91.60
42683;DHT22;28293;50.930;3.464;2022-11-20T02:02:50;5.20;91.70
42683;DHT22;28293;50.930;3.464;2022-11-20T02:05:23;5.30;91.70
42683;DHT22;28293;50.930;3.464;2022-11-20T02:07:53;5.30;91.60
42683;DHT22;28293;50.930;3.464;2022-11-20T02:10:20;5.30;91.70
42683;DHT22;28293;50.930;3.464;2022-11-20T02:12:46;5.30;91.60
42683;DHT22;28293;50.930;3.464;2022-11-20T02:15:32;5.20;91.70
42683;DHT22;28293;50.930;3.464;2022-11-20T02:17:59;5.30;91.70
42683;DHT22;28293;50.930;3.464;2022-11-20T02:20:25;5.20;91.70
42683;DHT22;28293;50.930;3.464;2022-11-20T02:25:20;5.30;91.90
42683;DHT22;28293;50.930;3.464;2022-11-20T02:27:46;5.30;91.90
42683;DHT22;28293;50.930;3.464;2022-11-20T02:30:12;5.30;92.00
42683;DHT22;28293;50.930;3.464;2022-11-20T02:32:38;5.30;92.00
42683;DHT22;28293;50.930;3.464;2022-11-20T02:35:08;5.40;92.10
42683;DHT22;28293;50.930;3.464;2022-11-20T02:37:37;5.40;92.00
42683;DHT22;28293;50.930;3.464;2022-11-20T02:40:04;5.40;92.10
42683;DHT22;28293;50.930;3.464;2022-11-20T02:42:29;5.40;92.10
42683;DHT22;28293;50.930;3.464;2022-11-20T02:44:55;5.40;92.10
42683;DHT22;28293;50.930;3.464;2022-11-20T02:47:21;5.40;92.20
42683;DHT22;28293;50.930;3.464;2022-11-20T02:49:46;5.50;92.20
42683;DHT22;28293;50.930;3.464;2022-11-20T02:52:12;5.40;92.20
42683;DHT22;28293;50.930;3.464;2022-11-20T02:54:38;5.40;92.20
42683;DHT22;28293;50.930;3.464;2022-11-20T02:57:03;5.40;92.20
42683;DHT22;28293;50.930;3.464;2022-11-20T02:59:29;5.40;92.30
42683;DHT22;28293;50.930;3.464;2022-11-20T03:01:54;5.50;92.30
42683;DHT22;28293;50.930;3.464;2022-11-20T03:04:20;5.50;92.30
42683;DHT22;28293;50.930;3.464;2022-11-20T03:06:46;5.50;92.30
42683;DHT22;28293;50.930;3.464;2022-11-20T03:09:12;5.60;92.40
42683;DHT22;28293;50.930;3.464;2022-11-20T03:11:37;5.50;92.30
42683;DHT22;28293;50.930;3.464;2022-11-20T03:14:04;5.60;92.40
42683;DHT22;28293;50.930;3.464;2022-11-20T03:16:30;5.60;92.30
42683;DHT22;28293;50.930;3.464;2022-11-20T03:18:56;5.50;92.10
42683;DHT22;28293;50.930;3.464;2022-11-20T03:21:22;5.60;92.20
42683;DHT22;28293;50.930;3.464;2022-11-20T03:23:48;5.60;92.20
42683;DHT22;28293;50.930;3.464;2022-11-20T03:26:15;5.60;92.10
42683;DHT22;28293;50.930;3.464;2022-11-20T03:28:45;5.60;92.20
42683;DHT22;28293;50.930;3.464;2022-11-20T03:31:12;5.60;92.20
42683;DHT22;28293;50.930;3.464;2022-11-20T03:33:40;5.50;92.20
42683;DHT22;28293;50.930;3.464;2022-11-20T03:36:11;5.60;92.20
42683;DHT22;28293;50.930;3.464;2022-11-20T03:38:38;5.60;92.20
42683;DHT22;28293;50.930;3.464;2022-11-20T03:41:24;5.50;92.30
42683;DHT22;28293;50.930;3.464;2022-11-20T03:43:54;5.50;92.30
42683;DHT22;28293;50.930;3.464;2022-11-20T03:46:21;5.60;92.40
42683;DHT22;28293;50.930;3.464;2022-11-20T03:48:47;5.60;92.50
42683;DHT22;28293;50.930;3.464;2022-11-20T03:51:19;5.60;92.50
42683;DHT22;28293;50.930;3.464;2022-11-20T03:53:47;5.60;92.50
42683;DHT22;28293;50.930;3.464;2022-11-20T03:56:15;5.60;92.50
42683;DHT22;28293;50.930;3.464;2022-11-20T03:58:41;5.60;92.50
42683;DHT22;28293;50.930;3.464;2022-11-20T04:01:07;5.60;92.50
42683;DHT22;28293;50.930;3.464;2022-11-20T04:03:34;5.60;92.50
42683;DHT22;28293;50.930;3.464;2022-11-20T04:06:12;5.60;92.50
42683;DHT22;28293;50.930;3.464;2022-11-20T04:08:38;5.50;92.50
42683;DHT22;28293;50.930;3.464;2022-11-20T04:11:11;5.60;92.60
42683;DHT22;28293;50.930;3.464;2022-11-20T04:13:37;5.60;92.60
42683;DHT22;28293;50.930;3.464;2022-11-20T04:16:03;5.60;92.60
42683;DHT22;28293;50.930;3.464;2022-11-20T04:18:29;5.50;92.70
42683;DHT22;28293;50.930;3.464;2022-11-20T04:20:56;5.50;92.60
42683;DHT22;28293;50.930;3.464;2022-11-20T04:23:22;5.50;92.60
42683;DHT22;28293;50.930;3.464;2022-11-20T04:25:48;5.40;92.60
42683;DHT22;28293;50.930;3.464;2022-11-20T04:28:14;5.50;92.60
42683;DHT22;28293;50.930;3.464;2022-11-20T04:30:39;5.40;92.60
42683;DHT22;28293;50.930;3.464;2022-11-20T04:33:05;5.40;92.60
42683;DHT22;28293;50.930;3.464;2022-11-20T04:35:34;5.40;92.70
42683;DHT22;28293;50.930;3.464;2022-11-20T04:38:00;5.40;92.70
42683;DHT22;28293;50.930;3.464;2022-11-20T04:40:26;5.30;92.80
42683;DHT22;28293;50.930;3.464;2022-11-20T04:42:51;5.40;93.00
42683;DHT22;28293;50.930;3.464;2022-11-20T04:45:17;5.40;93.00
42683;DHT22;28293;50.930;3.464;2022-11-20T04:47:42;5.40;92.90
42683;DHT22;28293;50.930;3.464;2022-11-20T04:50:08;5.40;92.80
42683;DHT22;28293;50.930;3.464;2022-11-20T04:52:34;5.30;92.80
42683;DHT22;28293;50.930;3.464;2022-11-20T04:55:00;5.30;92.90
42683;DHT22;28293;50.930;3.464;2022-11-20T04:57:25;5.30;92.90
42683;DHT22;28293;50.930;3.464;2022-11-20T04:59:51;5.30;92.90
42683;DHT22;28293;50.930;3.464;2022-11-20T05:02:16;5.30;92.90
42683;DHT22;28293;50.930;3.464;2022-11-20T05:04:42;5.40;92.90
42683;DHT22;28293;50.930;3.464;2022-11-20T05:07:08;5.40;92.90
42683;DHT22;28293;50.930;3.464;2022-11-20T05:09:34;5.40;92.80
42683;DHT22;28293;50.930;3.464;2022-11-20T05:11:59;5.40;92.90
42683;DHT22;28293;50.930;3.464;2022-11-20T05:14:25;5.40;92.80
42683;DHT22;28293;50.930;3.464;2022-11-20T05:16:50;5.30;92.80
42683;DHT22;28293;50.930;3.464;2022-11-20T05:19:16;5.30;92.90
42683;DHT22;28293;50.930;3.464;2022-11-20T05:21:42;5.30;92.90
42683;DHT22;28293;50.930;3.464;2022-11-20T05:24:07;5.30;92.90
42683;DHT22;28293;50.930;3.464;2022-11-20T05:26:33;5.30;92.90
42683;DHT22;28293;50.930;3.464;2022-11-20T05:28:59;5.30;92.90
42683;DHT22;28293;50.930;3.464;2022-11-20T05:31:25;5.40;92.90
42683;DHT22;28293;50.930;3.464;2022-11-20T05:33:50;5.40;93.00
42683;DHT22;28293;50.930;3.464;2022-11-20T05:36:17;5.40;93.00
42683;DHT22;28293;50.930;3.464;2022-11-20T05:38:43;5.40;92.90
42683;DHT22;28293;50.930;3.464;2022-11-20T05:41:19;5.50;93.00
42683;DHT22;28293;50.930;3.464;2022-11-20T05:43:46;5.50;93.00
42683;DHT22;28293;50.930;3.464;2022-11-20T05:46:13;5.50;93.00
42683;DHT22;28293;50.930;3.464;2022-11-20T05:48:40;5.60;93.00
42683;DHT22;28293;50.930;3.464;2022-11-20T05:51:09;5.60;93.00
42683;DHT22;28293;50.930;3.464;2022-11-20T05:53:36;5.60;93.00
42683;DHT22;28293;50.930;3.464;2022-11-20T05:56:05;5.60;93.00
42683;DHT22;28293;50.930;3.464;2022-11-20T05:58:31;5.60;92.90
42683;DHT22;28293;50.930;3.464;2022-11-20T06:01:09;5.60;93.00
42683;DHT22;28293;50.930;3.464;2022-11-20T06:03:36;5.60;92.90
42683;DHT22;28293;50.930;3.464;2022-11-20T06:06:03;5.60;93.00
42683;DHT22;28293;50.930;3.464;2022-11-20T06:08:29;5.60;93.00
42683;DHT22;28293;50.930;3.464;2022-11-20T06:10:55;5.70;93.00
42683;DHT22;28293;50.930;3.464;2022-11-20T06:13:21;5.60;93.00
42683;DHT22;28293;50.930;3.464;2022-11-20T06:15:50;5.70;93.10
42683;DHT22;28293;50.930;3.464;2022-11-20T06:18:16;5.60;93.10
42683;DHT22;28293;50.930;3.464;2022-11-20T06:20:42;5.70;93.00
42683;DHT22;28293;50.930;3.464;2022-11-20T06:23:07;5.70;93.00
42683;DHT22;28293;50.930;3.464;2022-11-20T06:25:36;5.70;93.10
42683;DHT22;28293;50.930;3.464;2022-11-20T06:28:02;5.70;93.10
42683;DHT22;28293;50.930;3.464;2022-11-20T06:30:28;5.70;93.10
42683;DHT22;28293;50.930;3.464;2022-11-20T06:32:54;5.70;93.10
42683;DHT22;28293;50.930;3.464;2022-11-20T06:35:19;5.70;93.10
42683;DHT22;28293;50.930;3.464;2022-11-20T06:37:45;5.70;93.20
42683;DHT22;28293;50.930;3.464;2022-11-20T06:40:11;5.70;93.10
42683;DHT22;28293;50.930;3.464;2022-11-20T06:42:36;5.80;93.20
42683;DHT22;28293;50.930;3.464;2022-11-20T06:45:02;5.80;93.20
42683;DHT22;28293;50.930;3.464;2022-11-20T06:47:28;5.80;93.20
42683;DHT22;28293;50.930;3.464;2022-11-20T06:49:53;5.80;93.20
42683;DHT22;28293;50.930;3.464;2022-11-20T06:52:19;5.80;93.30
42683;DHT22;28293;50.930;3.464;2022-11-20T06:54:45;5.80;93.30
42683;DHT22;28293;50.930;3.464;2022-11-20T06:57:10;5.70;93.30
42683;DHT22;28293;50.930;3.464;2022-11-20T06:59:36;5.80;93.40
42683;DHT22;28293;50.930;3.464;2022-11-20T07:02:01;5.80;93.40
42683;DHT22;28293;50.930;3.464;2022-11-20T07:04:27;5.80;93.40
42683;DHT22;28293;50.930;3.464;2022-11-20T07:06:53;5.80;93.40
42683;DHT22;28293;50.930;3.464;2022-11-20T07:09:18;5.80;93.40
42683;DHT22;28293;50.930;3.464;2022-11-20T07:11:44;5.80;93.40
42683;DHT22;28293;50.930;3.464;2022-11-20T07:14:10;5.80;93.40
42683;DHT22;28293;50.930;3.464;2022-11-20T07:16:35;5.80;93.50
42683;DHT22;28293;50.930;3.464;2022-11-20T07:19:04;5.80;93.50
42683;DHT22;28293;50.930;3.464;2022-11-20T07:21:29;5.80;93.50
42683;DHT22;28293;50.930;3.464;2022-11-20T07:23:55;5.80;93.50
42683;DHT22;28293;50.930;3.464;2022-11-20T07:26:21;5.80;93.60
42683;DHT22;28293;50.930;3.464;2022-11-20T07:28:46;5.90;93.70
42683;DHT22;28293;50.930;3.464;2022-11-20T07:31:12;5.90;93.70
42683;DHT22;28293;50.930;3.464;2022-11-20T07:33:38;5.90;93.70
42683;DHT22;28293;50.930;3.464;2022-11-20T07:36:04;6.00;93.70
42683;DHT22;28293;50.930;3.464;2022-11-20T07:38:30;6.00;93.80
42683;DHT22;28293;50.930;3.464;2022-11-20T07:40:56;6.00;93.80
42683;DHT22;28293;50.930;3.464;2022-11-20T07:43:23;6.00;93.80
42683;DHT22;28293;50.930;3.464;2022-11-20T07:45:49;6.00;93.80
42683;DHT22;28293;50.930;3.464;2022-11-20T07:48:15;6.00;93.80
42683;DHT22;28293;50.930;3.464;2022-11-20T07:50:41;6.00;93.80
42683;DHT22;28293;50.930;3.464;2022-11-20T07:53:06;6.10;93.90
42683;DHT22;28293;50.930;3.464;2022-11-20T07:55:32;6.10;93.90
42683;DHT22;28293;50.930;3.464;2022-11-20T07:57:58;6.10;93.90
42683;DHT22;28293;50.930;3.464;2022-11-20T08:00:25;6.10;93.90
42683;DHT22;28293;50.930;3.464;2022-11-20T08:02:51;6.10;94.00
42683;DHT22;28293;50.930;3.464;2022-11-20T08:05:16;6.10;94.00
42683;DHT22;28293;50.930;3.464;2022-11-20T08:07:43;6.20;94.00
42683;DHT22;28293;50.930;3.464;2022-11-20T08:10:11;6.20;94.10
42683;DHT22;28293;50.930;3.464;2022-11-20T08:12:47;6.20;94.00
42683;DHT22;28293;50.930;3.464;2022-11-20T08:15:32;6.20;94.10
42683;DHT22;28293;50.930;3.464;2022-11-20T08:18:09;6.30;94.10
42683;DHT22;28293;50.930;3.464;2022-11-20T08:20:36;6.30;94.10
42683;DHT22;28293;50.930;3.464;2022-11-20T08:23:04;6.30;94.20
42683;DHT22;28293;50.930;3.464;2022-11-20T08:25:32;6.30;94.10
42683;DHT22;28293;50.930;3.464;2022-11-20T08:28:02;6.30;94.10
42683;DHT22;28293;50.930;3.464;2022-11-20T08:30:29;6.40;94.20
42683;DHT22;28293;50.930;3.464;2022-11-20T08:32:59;6.40;94.10
42683;DHT22;28293;50.930;3.464;2022-11-20T08:35:26;6.40;94.10
42683;DHT22;28293;50.930;3.464;2022-11-20T08:37:51;6.50;94.10
42683;DHT22;28293;50.930;3.464;2022-11-20T08:40:17;6.50;94.10
42683;DHT22;28293;50.930;3.464;2022-11-20T08:42:50;6.50;94.10
42683;DHT22;28293;50.930;3.464;2022-11-20T08:45:17;6.60;94.20
42683;DHT22;28293;50.930;3.464;2022-11-20T08:47:44;6.60;94.20
42683;DHT22;28293;50.930;3.464;2022-11-20T08:50:11;6.60;94.20
42683;DHT22;28293;50.930;3.464;2022-11-20T08:52:37;6.70;94.10
42683;DHT22;28293;50.930;3.464;2022-11-20T08:55:04;6.70;94.10
42683;DHT22;28293;50.930;3.464;2022-11-20T08:57:34;6.80;94.00
42683;DHT22;28293;50.930;3.464;2022-11-20T09:00:00;6.80;94.00
42683;DHT22;28293;50.930;3.464;2022-11-20T09:02:26;6.90;94.00
42683;DHT22;28293;50.930;3.464;2022-11-20T09:04:51;6.90;93.90
42683;DHT22;28293;50.930;3.464;2022-11-20T09:07:18;7.00;93.90
42683;DHT22;28293;50.930;3.464;2022-11-20T09:09:44;7.00;93.70
42683;DHT22;28293;50.930;3.464;2022-11-20T09:12:10;7.10;93.80
42683;DHT22;28293;50.930;3.464;2022-11-20T09:14:35;7.10;93.60
42683;DHT22;28293;50.930;3.464;2022-11-20T09:17:01;7.10;93.40
42683;DHT22;28293;50.930;3.464;2022-11-20T09:19:27;7.20;93.40
42683;DHT22;28293;50.930;3.464;2022-11-20T09:21:52;7.20;93.20
42683;DHT22;28293;50.930;3.464;2022-11-20T09:24:19;7.20;93.00
42683;DHT22;28293;50.930;3.464;2022-11-20T09:26:46;7.30;92.90
42683;DHT22;28293;50.930;3.464;2022-11-20T09:29:11;7.40;92.80
42683;DHT22;28293;50.930;3.464;2022-11-20T09:31:37;7.50;92.60
42683;DHT22;28293;50.930;3.464;2022-11-20T09:34:03;7.60;92.40
42683;DHT22;28293;50.930;3.464;2022-11-20T09:36:29;7.60;92.10
42683;DHT22;28293;50.930;3.464;2022-11-20T09:38:54;7.70;91.80
42683;DHT22;28293;50.930;3.464;2022-11-20T09:45:10;7.70;91.00
42683;DHT22;28293;50.930;3.464;2022-11-20T09:47:53;7.90;91.00
42683;DHT22;28293;50.930;3.464;2022-11-20T09:50:31;7.90;90.60
42683;DHT22;28293;50.930;3.464;2022-11-20T09:55:55;8.00;89.90
42683;DHT22;28293;50.930;3.464;2022-11-20T09:58:39;8.10;89.70
42683;DHT22;28293;50.930;3.464;2022-11-20T10:01:13;8.10;89.40
42683;DHT22;28293;50.930;3.464;2022-11-20T10:06:24;8.20;89.20
42683;DHT22;28293;50.930;3.464;2022-11-20T10:11:48;8.20;89.10
42683;DHT22;28293;50.930;3.464;2022-11-20T10:22:40;8.40;88.40
42683;DHT22;28293;50.930;3.464;2022-11-20T10:25:18;8.50;88.20
42683;DHT22;28293;50.930;3.464;2022-11-20T10:30:14;8.50;88.10
42683;DHT22;28293;50.930;3.464;2022-11-20T10:32:43;8.60;87.80
42683;DHT22;28293;50.930;3.464;2022-11-20T10:37:36;8.60;87.50
42683;DHT22;28293;50.930;3.464;2022-11-20T10:42:46;8.60;87.00
42683;DHT22;28293;50.930;3.464;2022-11-20T10:47:51;8.60;86.80
42683;DHT22;28293;50.930;3.464;2022-11-20T10:50:20;8.60;86.80
42683;DHT22;28293;50.930;3.464;2022-11-20T10:53:18;8.60;86.80
42683;DHT22;28293;50.930;3.464;2022-11-20T10:56:00;8.60;86.70
42683;DHT22;28293;50.930;3.464;2022-11-20T10:58:44;8.70;86.90
42683;DHT22;28293;50.930;3.464;2022-11-20T11:01:16;8.60;86.80
42683;DHT22;28293;50.930;3.464;2022-11-20T11:03:42;8.70;86.80
42683;DHT22;28293;50.930;3.464;2022-11-20T11:06:20;8.70;86.80
42683;DHT22;28293;50.930;3.464;2022-11-20T11:08:47;8.60;86.90
42683;DHT22;28293;50.930;3.464;2022-11-20T11:11:30;8.50;87.20
42683;DHT22;28293;50.930;3.464;2022-11-20T11:14:14;8.40;87.60
42683;DHT22;28293;50.930;3.464;2022-11-20T11:16:51;8.40;88.20
42683;DHT22;28293;50.930;3.464;2022-11-20T11:19:17;8.30;88.60
42683;DHT22;28293;50.930;3.464;2022-11-20T11:21:47;8.30;88.90
42683;DHT22;28293;50.930;3.464;2022-11-20T11:24:26;8.20;89.00
42683;DHT22;28293;50.930;3.464;2022-11-20T11:26:58;8.10;89.20
42683;DHT22;28293;50.930;3.464;2022-11-20T11:29:24;8.10;89.50
42683;DHT22;28293;50.930;3.464;2022-11-20T11:32:12;8.10;89.70
42683;DHT22;28293;50.930;3.464;2022-11-20T11:34:38;8.10;89.90
42683;DHT22;28293;50.930;3.464;2022-11-20T11:37:04;8.10;90.10
42683;DHT22;28293;50.930;3.464;2022-11-20T11:39:32;8.10;90.10
42683;DHT22;28293;50.930;3.464;2022-11-20T11:42:00;8.10;90.30
42683;DHT22;28293;50.930;3.464;2022-11-20T11:44:34;8.10;90.20
42683;DHT22;28293;50.930;3.464;2022-11-20T11:47:46;8.20;90.50
42683;DHT22;28293;50.930;3.464;2022-11-20T11:53:09;8.10;90.80
42683;DHT22;28293;50.930;3.464;2022-11-20T11:55:54;8.10;91.00
42683;DHT22;28293;50.930;3.464;2022-11-20T12:01:32;8.10;91.60
42683;DHT22;28293;50.930;3.464;2022-11-20T12:04:12;8.10;91.90
42683;DHT22;28293;50.930;3.464;2022-11-20T12:06:43;8.10;92.00
42683;DHT22;28293;50.930;3.464;2022-11-20T12:09:10;8.10;92.20
42683;DHT22;28293;50.930;3.464;2022-11-20T12:12:17;8.10;92.20
42683;DHT22;28293;50.930;3.464;2022-11-20T12:14:47;8.10;92.20
42683;DHT22;28293;50.930;3.464;2022-11-20T12:17:14;8.10;92.30
42683;DHT22;28293;50.930;3.464;2022-11-20T12:19:40;8.10;92.30
42683;DHT22;28293;50.930;3.464;2022-11-20T12:30:21;8.30;92.70
42683;DHT22;28293;50.930;3.464;2022-11-20T12:33:08;8.20;92.70
42683;DHT22;28293;50.930;3.464;2022-11-20T12:35:56;8.30;93.00
42683;DHT22;28293;50.930;3.464;2022-11-20T12:50:56;8.40;93.00
42683;DHT22;28293;50.930;3.464;2022-11-20T13:02:14;8.30;93.00
42683;DHT22;28293;50.930;3.464;2022-11-20T13:07:43;8.40;93.00
42683;DHT22;28293;50.930;3.464;2022-11-20T13:10:38;8.40;93.00
42683;DHT22;28293;50.930;3.464;2022-11-20T13:18:39;8.50;92.90
42683;DHT22;28293;50.930;3.464;2022-11-20T13:21:43;8.50;92.80
42683;DHT22;28293;50.930;3.464;2022-11-20T13:24:37;8.40;92.80
42683;DHT22;28293;50.930;3.464;2022-11-20T13:29:38;8.40;92.90
42683;DHT22;28293;50.930;3.464;2022-11-20T13:32:18;8.50;92.90
42683;DHT22;28293;50.930;3.464;2022-11-20T13:35:00;8.50;93.00
42683;DHT22;28293;50.930;3.464;2022-11-20T13:37:32;8.50;93.00
42683;DHT22;28293;50.930;3.464;2022-11-20T13:40:25;8.50;93.00
42683;DHT22;28293;50.930;3.464;2022-11-20T13:43:01;8.50;93.00
42683;DHT22;28293;50.930;3.464;2022-11-20T13:45:31;8.50;92.90
42683;DHT22;28293;50.930;3.464;2022-11-20T13:48:02;8.60;93.00
42683;DHT22;28293;50.930;3.464;2022-11-20T13:56:07;8.80;92.90
42683;DHT22;28293;50.930;3.464;2022-11-20T14:01:33;9.20;92.70
42683;DHT22;28293;50.930;3.464;2022-11-20T14:04:07;9.30;92.20
42683;DHT22;28293;50.930;3.464;2022-11-20T14:06:44;9.50;92.10
42683;DHT22;28293;50.930;3.464;2022-11-20T14:09:13;9.60;91.90
42683;DHT22;28293;50.930;3.464;2022-11-20T14:11:46;9.60;91.70
42683;DHT22;28293;50.930;3.464;2022-11-20T14:14:23;9.60;91.50
42683;DHT22;28293;50.930;3.464;2022-11-20T14:16:50;9.80;91.30
42683;DHT22;28293;50.930;3.464;2022-11-20T14:19:27;9.80;91.00
42683;DHT22;28293;50.930;3.464;2022-11-20T14:22:06;9.80;91.00
42683;DHT22;28293;50.930;3.464;2022-11-20T14:24:32;9.80;90.80
42683;DHT22;28293;50.930;3.464;2022-11-20T14:26:58;9.90;90.60
42683;DHT22;28293;50.930;3.464;2022-11-20T14:29:29;9.80;90.20
42683;DHT22;28293;50.930;3.464;2022-11-20T14:31:56;9.90;90.10
42683;DHT22;28293;50.930;3.464;2022-11-20T14:34:27;9.90;89.80
42683;DHT22;28293;50.930;3.464;2022-11-20T14:37:05;9.90;89.40
42683;DHT22;28293;50.930;3.464;2022-11-20T14:39:34;9.90;89.30
42683;DHT22;28293;50.930;3.464;2022-11-20T14:42:00;9.80;89.20
42683;DHT22;28293;50.930;3.464;2022-11-20T14:44:31;9.90;89.00
42683;DHT22;28293;50.930;3.464;2022-11-20T14:46:59;9.90;88.80
42683;DHT22;28293;50.930;3.464;2022-11-20T14:49:25;9.90;88.40
42683;DHT22;28293;50.930;3.464;2022-11-20T14:52:18;9.90;87.70
42683;DHT22;28293;50.930;3.464;2022-11-20T14:57:37;9.90;87.20
42683;DHT22;28293;50.930;3.464;2022-11-20T15:00:23;10.00;87.10
42683;DHT22;28293;50.930;3.464;2022-11-20T15:02:50;9.90;86.40
42683;DHT22;28293;50.930;3.464;2022-11-20T15:05:19;9.90;86.50
42683;DHT22;28293;50.930;3.464;2022-11-20T15:07:51;9.90;86.60
42683;DHT22;28293;50.930;3.464;2022-11-20T15:10:27;9.90;86.00
42683;DHT22;28293;50.930;3.464;2022-11-20T15:13:05;9.90;85.50
42683;DHT22;28293;50.930;3.464;2022-11-20T15:15:35;9.90;85.50
42683;DHT22;28293;50.930;3.464;2022-11-20T15:18:01;9.80;85.30
42683;DHT22;28293;50.930;3.464;2022-11-20T15:20:32;9.70;85.50
42683;DHT22;28293;50.930;3.464;2022-11-20T15:22:58;9.70;85.70
42683;DHT22;28293;50.930;3.464;2022-11-20T15:25:23;9.60;85.80
42683;DHT22;28293;50.930;3.464;2022-11-20T15:27:54;9.60;86.10
42683;DHT22;28293;50.930;3.464;2022-11-20T15:30:21;9.60;86.20
42683;DHT22;28293;50.930;3.464;2022-11-20T15:32:47;9.50;86.50
42683;DHT22;28293;50.930;3.464;2022-11-20T15:35:14;9.50;86.70
42683;DHT22;28293;50.930;3.464;2022-11-20T15:37:41;9.40;87.00
42683;DHT22;28293;50.930;3.464;2022-11-20T15:40:07;9.40;87.20
42683;DHT22;28293;50.930;3.464;2022-11-20T15:42:34;9.40;87.50
42683;DHT22;28293;50.930;3.464;2022-11-20T15:45:00;9.40;87.40
42683;DHT22;28293;50.930;3.464;2022-11-20T15:47:31;9.30;87.40
42683;DHT22;28293;50.930;3.464;2022-11-20T15:49:57;9.30;87.40
42683;DHT22;28293;50.930;3.464;2022-11-20T15:52:23;9.40;87.30
42683;DHT22;28293;50.930;3.464;2022-11-20T15:54:49;9.30;87.40
42683;DHT22;28293;50.930;3.464;2022-11-20T15:57:14;9.40;87.40
42683;DHT22;28293;50.930;3.464;2022-11-20T15:59:40;9.40;87.10
42683;DHT22;28293;50.930;3.464;2022-11-20T16:02:14;9.40;86.60
42683;DHT22;28293;50.930;3.464;2022-11-20T16:04:41;9.30;86.40
42683;DHT22;28293;50.930;3.464;2022-11-20T16:07:07;9.30;86.10
42683;DHT22;28293;50.930;3.464;2022-11-20T16:09:33;9.20;86.20
42683;DHT22;28293;50.930;3.464;2022-11-20T16:11:59;9.10;86.30
42683;DHT22;28293;50.930;3.464;2022-11-20T16:14:28;9.10;86.50
42683;DHT22;28293;50.930;3.464;2022-11-20T16:17:12;9.00;87.20
42683;DHT22;28293;50.930;3.464;2022-11-20T16:19:38;9.00;87.50
42683;DHT22;28293;50.930;3.464;2022-11-20T16:22:04;8.90;87.60
42683;DHT22;28293;50.930;3.464;2022-11-20T16:24:30;8.90;87.70
42683;DHT22;28293;50.930;3.464;2022-11-20T16:26:55;8.90;87.60
42683;DHT22;28293;50.930;3.464;2022-11-20T16:29:21;8.90;87.60
42683;DHT22;28293;50.930;3.464;2022-11-20T16:31:47;8.90;87.50
42683;DHT22;28293;50.930;3.464;2022-11-20T16:34:15;8.80;87.50
42683;DHT22;28293;50.930;3.464;2022-11-20T16:36:42;8.80;87.60
42683;DHT22;28293;50.930;3.464;2022-11-20T16:39:09;8.70;87.70
42683;DHT22;28293;50.930;3.464;2022-11-20T16:41:34;8.60;87.80
42683;DHT22;28293;50.930;3.464;2022-11-20T16:44:02;8.60;88.00
42683;DHT22;28293;50.930;3.464;2022-11-20T16:46:31;8.50;88.30
42683;DHT22;28293;50.930;3.464;2022-11-20T16:49:05;8.50;88.40
42683;DHT22;28293;50.930;3.464;2022-11-20T16:51:34;8.40;88.40
42683;DHT22;28293;50.930;3.464;2022-11-20T16:54:04;8.40;88.60
42683;DHT22;28293;50.930;3.464;2022-11-20T16:56:30;8.30;88.80
42683;DHT22;28293;50.930;3.464;2022-11-20T16:58:57;8.30;88.80
42683;DHT22;28293;50.930;3.464;2022-11-20T17:01:25;8.30;88.80
42683;DHT22;28293;50.930;3.464;2022-11-20T17:03:57;8.20;88.90
42683;DHT22;28293;50.930;3.464;2022-11-20T17:06:25;8.20;88.90
42683;DHT22;28293;50.930;3.464;2022-11-20T17:08:53;8.20;88.90
42683;DHT22;28293;50.930;3.464;2022-11-20T17:11:19;8.10;89.10
42683;DHT22;28293;50.930;3.464;2022-11-20T17:13:45;8.10;89.30
42683;DHT22;28293;50.930;3.464;2022-11-20T17:16:19;8.10;89.40
42683;DHT22;28293;50.930;3.464;2022-11-20T17:18:45;8.10;89.40
42683;DHT22;28293;50.930;3.464;2022-11-20T17:21:11;8.10;89.50
42683;DHT22;28293;50.930;3.464;2022-11-20T17:23:42;8.10;89.60
42683;DHT22;28293;50.930;3.464;2022-11-20T17:26:10;8.10;89.70
42683;DHT22;28293;50.930;3.464;2022-11-20T17:28:38;8.00;89.70
42683;DHT22;28293;50.930;3.464;2022-11-20T17:31:09;8.00;89.80